createdAt,value
2023-02-27T00:00:32.165Z,13.50
2023-02-27T00:03:19.933Z,14.10
2023-02-27T00:05:47.625Z,7.60
2023-02-27T00:08:15.428Z,13.50
2023-02-27T00:10:43.174Z,16.10
2023-02-27T00:13:10.908Z,13.40
2023-02-27T00:15:41.042Z,11.80
2023-02-27T00:18:08.898Z,16.00
2023-02-27T00:20:38.152Z,12.90
2023-02-27T00:23:06.838Z,10.20
2023-02-27T00:25:35.411Z,11.40
2023-02-27T00:28:04.437Z,12.50
2023-02-27T00:30:33.199Z,13.30
2023-02-27T00:33:01.031Z,10.90
2023-02-27T00:35:28.833Z,9.50
2023-02-27T00:37:56.571Z,15.10
2023-02-27T00:40:25.380Z,6.90
2023-02-27T00:42:53.547Z,7.80
2023-02-27T00:45:21.573Z,9.60
2023-02-27T00:47:49.426Z,12.80
2023-02-27T00:50:17.232Z,9.70
2023-02-27T00:52:44.976Z,8.20
2023-02-27T00:55:12.851Z,11.60
2023-02-27T00:57:40.826Z,8.30
2023-02-27T01:00:09.606Z,9.60
2023-02-27T01:02:37.466Z,5.70
2023-02-27T01:05:05.800Z,8.80
2023-02-27T01:07:33.867Z,9.20
2023-02-27T01:10:02.027Z,8.60
2023-02-27T01:12:29.987Z,19.20
2023-02-27T01:14:57.689Z,8.80
2023-02-27T01:17:25.411Z,9.30
2023-02-27T01:19:53.249Z,6.80
2023-02-27T01:22:20.961Z,7.50
2023-02-27T01:24:48.702Z,6.60
2023-02-27T01:27:17.051Z,6.80
2023-02-27T01:29:44.817Z,10.50
2023-02-27T01:32:12.644Z,8.00
2023-02-27T01:34:40.468Z,6.90
2023-02-27T01:37:08.220Z,15.10
2023-02-27T01:39:36.545Z,9.80
2023-02-27T01:42:19.278Z,5.70
2023-02-27T01:45:10.961Z,8.60
2023-02-27T01:47:43.956Z,8.60
2023-02-27T01:50:14.073Z,9.90
2023-02-27T01:52:44.950Z,11.20
2023-02-27T01:55:14.940Z,7.60
2023-02-27T01:57:46.302Z,8.40
2023-02-27T02:00:16.356Z,9.60
2023-02-27T02:02:56.982Z,7.90
2023-02-27T02:05:24.870Z,7.40
2023-02-27T02:07:53.694Z,5.30
2023-02-27T02:10:22.282Z,6.80
2023-02-27T02:12:50.321Z,7.40
2023-02-27T02:15:19.196Z,4.40
2023-02-27T02:18:01.468Z,5.90
2023-02-27T02:20:45.493Z,6.10
2023-02-27T02:23:29.131Z,8.60
2023-02-27T02:26:19.725Z,3.20
2023-02-27T02:29:10.235Z,6.60
2023-02-27T02:31:56.959Z,4.10
2023-02-27T02:34:56.768Z,7.30
2023-02-27T02:37:47.752Z,14.00
2023-02-27T02:40:37.262Z,5.50
2023-02-27T02:43:18.894Z,6.20
2023-02-27T02:46:05.576Z,9.60
2023-02-27T02:48:44.981Z,5.20
2023-02-27T02:51:18.451Z,5.80
2023-02-27T02:54:05.603Z,5.90
2023-02-27T02:56:41.339Z,5.20
2023-02-27T02:59:15.146Z,5.40
2023-02-27T03:01:49.041Z,7.80
2023-02-27T03:04:31.910Z,5.90
2023-02-27T03:07:33.563Z,6.20
2023-02-27T03:10:08.258Z,3.80
2023-02-27T03:12:41.084Z,10.40
2023-02-27T03:15:18.957Z,5.70
2023-02-27T03:18:06.664Z,5.70
2023-02-27T03:20:44.517Z,7.00
2023-02-27T03:23:18.600Z,6.60
2023-02-27T03:25:50.751Z,8.60
2023-02-27T03:28:23.558Z,8.90
2023-02-27T03:31:17.585Z,10.70
2023-02-27T03:34:01.407Z,5.10
2023-02-27T03:37:01.855Z,6.00
2023-02-27T03:39:48.792Z,6.60
2023-02-27T03:42:33.276Z,8.10
2023-02-27T03:45:15.968Z,11.00
2023-02-27T03:47:45.152Z,8.40
2023-02-27T03:50:13.870Z,9.40
2023-02-27T03:52:43.162Z,9.70
2023-02-27T03:55:23.013Z,6.20
2023-02-27T03:57:52.713Z,5.30
2023-02-27T04:00:23.775Z,8.20
2023-02-27T04:02:54.789Z,12.20
2023-02-27T04:05:25.239Z,7.00
2023-02-27T04:08:27.477Z,6.40
2023-02-27T04:11:27.441Z,8.90
2023-02-27T04:14:31.753Z,8.90
2023-02-27T04:17:14.618Z,10.10
2023-02-27T04:20:25.302Z,8.30
2023-02-27T04:23:10.575Z,5.60
2023-02-27T04:26:10.402Z,5.40
2023-02-27T04:29:07.434Z,13.20
2023-02-27T04:31:44.324Z,10.30
2023-02-27T04:34:20.283Z,8.30
2023-02-27T04:37:05.881Z,11.50
2023-02-27T04:39:51.868Z,10.30
2023-02-27T04:42:24.516Z,12.90
2023-02-27T04:44:56.720Z,6.40
2023-02-27T04:47:28.688Z,6.80
2023-02-27T04:50:04.341Z,5.80
2023-02-27T04:52:37.922Z,10.30
2023-02-27T04:55:14.766Z,14.70
2023-02-27T04:57:53.304Z,11.90
2023-02-27T05:00:23.174Z,13.10
2023-02-27T05:03:01.228Z,7.00
2023-02-27T05:05:33.815Z,7.30
2023-02-27T05:08:17.026Z,16.40
2023-02-27T05:11:16.640Z,9.40
2023-02-27T05:14:14.876Z,9.20
2023-02-27T05:16:49.664Z,7.10
2023-02-27T05:19:20.478Z,9.70
2023-02-27T05:22:08.935Z,11.20
2023-02-27T05:24:46.903Z,9.90
2023-02-27T05:27:36.406Z,12.50
2023-02-27T05:30:23.933Z,12.00
2023-02-27T05:33:12.508Z,8.80
2023-02-27T05:36:03.230Z,9.90
2023-02-27T05:38:42.366Z,8.50
2023-02-27T05:41:29.171Z,11.60
2023-02-27T05:44:03.182Z,13.40
2023-02-27T05:46:35.821Z,12.90
2023-02-27T05:49:23.239Z,12.30
2023-02-27T05:51:54.979Z,11.40
2023-02-27T05:54:45.786Z,11.20
2023-02-27T05:57:21.283Z,13.00
2023-02-27T06:00:10.432Z,10.70
2023-02-27T06:02:42.491Z,12.80
2023-02-27T06:05:14.828Z,9.70
2023-02-27T06:07:42.608Z,9.20
2023-02-27T06:10:19.292Z,31.00
2023-02-27T06:12:47.215Z,14.30
2023-02-27T06:15:15.070Z,11.20
2023-02-27T06:17:42.828Z,10.50
2023-02-27T06:20:11.496Z,12.00
2023-02-27T06:22:39.598Z,18.10
2023-02-27T06:25:07.758Z,32.40
2023-02-27T06:27:35.556Z,37.90
2023-02-27T06:30:04.488Z,45.50
2023-02-27T06:32:32.189Z,42.50
2023-02-27T06:34:59.978Z,50.70
2023-02-27T06:37:27.742Z,32.50
2023-02-27T06:39:55.529Z,32.10
2023-02-27T06:42:24.416Z,32.90
2023-02-27T06:44:52.403Z,32.00
2023-02-27T06:47:20.130Z,36.40
2023-02-27T06:49:47.912Z,44.00
2023-02-27T06:52:15.890Z,42.20
2023-02-27T06:54:43.601Z,36.50
2023-02-27T06:57:11.358Z,37.20
2023-02-27T06:59:39.080Z,31.00
2023-02-27T07:02:07.283Z,29.10
2023-02-27T07:04:35.137Z,20.10
2023-02-27T07:07:33.976Z,17.70
2023-02-27T07:09:50.802Z,25.50
2023-02-27T07:12:18.804Z,24.80
2023-02-27T07:14:46.634Z,22.70
2023-02-27T07:17:14.825Z,21.60
2023-02-27T07:19:42.798Z,20.50
2023-02-27T07:22:10.988Z,13.40
2023-02-27T07:24:43.083Z,15.80
2023-02-27T07:27:11.553Z,76.90
2023-02-27T07:29:39.405Z,35.00
2023-02-27T07:32:07.151Z,41.10
2023-02-27T07:34:35.112Z,38.10
2023-02-27T07:37:04.201Z,38.40
2023-02-27T07:39:34.245Z,27.50
2023-02-27T07:42:02.417Z,25.10
2023-02-27T07:44:30.183Z,26.80
2023-02-27T07:46:57.913Z,14.70
2023-02-27T07:49:25.891Z,22.40
2023-02-27T07:51:53.714Z,14.20
2023-02-27T07:54:21.425Z,28.80
2023-02-27T07:57:09.202Z,18.90
2023-02-27T07:59:55.556Z,23.00
2023-02-27T08:03:11.347Z,17.10
2023-02-27T08:06:46.501Z,14.90
2023-02-27T08:09:24.145Z,16.60
2023-02-27T08:11:51.881Z,8.30
2023-02-27T08:14:20.376Z,13.60
2023-02-27T08:16:48.135Z,15.10
2023-02-27T08:19:16.046Z,21.20
2023-02-27T08:21:48.273Z,18.50
2023-02-27T08:24:17.692Z,15.70
2023-02-27T08:26:45.477Z,15.80
2023-02-27T08:29:15.541Z,10.80
2023-02-27T08:31:45.042Z,19.90
2023-02-27T08:34:13.370Z,32.30
2023-02-27T08:36:41.142Z,9.50
2023-02-27T08:39:09.866Z,11.70
2023-02-27T08:41:37.726Z,20.60
2023-02-27T08:44:05.453Z,13.50
2023-02-27T08:46:33.304Z,10.60
2023-02-27T08:49:01.130Z,12.90
2023-02-27T08:51:29.316Z,12.70
2023-02-27T08:53:59.106Z,12.20
2023-02-27T08:56:28.453Z,14.10
2023-02-27T08:58:57.451Z,13.10
2023-02-27T09:01:28.473Z,10.50
2023-02-27T09:03:56.676Z,12.40
2023-02-27T09:06:26.334Z,12.00
2023-02-27T09:08:54.568Z,9.00
2023-02-27T09:11:22.729Z,25.20
2023-02-27T09:13:51.513Z,15.80
2023-02-27T09:16:21.484Z,21.40
2023-02-27T09:18:50.427Z,16.50
2023-02-27T09:21:18.655Z,16.00
2023-02-27T09:23:46.433Z,14.20
2023-02-27T09:26:14.379Z,8.20
2023-02-27T09:28:42.420Z,29.90
2023-02-27T09:31:12.364Z,14.50
2023-02-27T09:33:40.529Z,11.40
2023-02-27T09:36:08.663Z,6.10
2023-02-27T09:38:40.976Z,5.20
2023-02-27T09:41:39.283Z,3.60
2023-02-27T09:44:30.667Z,5.40
2023-02-27T09:47:06.545Z,6.30
2023-02-27T09:49:48.151Z,5.40
2023-02-27T09:52:15.895Z,8.30
2023-02-27T09:54:44.668Z,5.80
2023-02-27T09:57:23.536Z,3.90
2023-02-27T10:00:00.023Z,6.20
2023-02-27T10:02:45.004Z,6.30
2023-02-27T10:05:28.916Z,8.00
2023-02-27T10:08:17.285Z,5.00
2023-02-27T10:10:51.681Z,11.00
2023-02-27T10:13:38.182Z,22.50
2023-02-27T10:16:10.509Z,9.40
2023-02-27T10:18:47.142Z,9.10
2023-02-27T10:21:22.241Z,9.40
2023-02-27T10:24:01.883Z,7.00
2023-02-27T10:26:34.586Z,17.20
2023-02-27T10:29:15.167Z,14.50
2023-02-27T10:31:46.500Z,10.30
2023-02-27T10:34:16.494Z,5.90
2023-02-27T10:36:46.992Z,5.50
2023-02-27T10:39:18.611Z,7.50
2023-02-27T10:41:47.092Z,5.40
2023-02-27T10:44:18.559Z,4.60
2023-02-27T10:46:47.693Z,10.20
2023-02-27T10:49:22.162Z,10.20
2023-02-27T10:54:35.020Z,9.50
2023-02-27T10:57:16.325Z,8.80
2023-02-27T10:59:52.630Z,31.70
2023-02-27T11:02:26.233Z,13.70
2023-02-27T11:04:57.061Z,18.20
2023-02-27T11:07:32.199Z,11.60
2023-02-27T11:10:19.881Z,11.70
2023-02-27T11:13:18.596Z,11.70
2023-02-27T11:16:03.111Z,10.60
2023-02-27T11:18:31.916Z,6.00
2023-02-27T11:21:15.675Z,9.40
2023-02-27T11:24:01.928Z,15.40
2023-02-27T11:26:39.794Z,8.90
2023-02-27T11:29:14.850Z,19.40
2023-02-27T11:32:02.023Z,10.60
2023-02-27T11:34:32.798Z,11.90
2023-02-27T11:37:05.312Z,14.80
2023-02-27T11:39:52.029Z,10.40
2023-02-27T11:42:37.452Z,6.70
2023-02-27T11:46:14.612Z,11.00
2023-02-27T11:51:01.330Z,6.30
2023-02-27T11:54:01.063Z,10.70
2023-02-27T11:57:00.975Z,3.50
2023-02-27T11:59:49.569Z,5.20
2023-02-27T12:02:46.576Z,6.70
2023-02-27T12:05:15.295Z,9.20
2023-02-27T12:08:02.298Z,7.60
2023-02-27T12:11:18.295Z,3.40
2023-02-27T12:14:25.970Z,6.10
2023-02-27T12:17:02.489Z,127.60
2023-02-27T12:19:39.971Z,16.00
2023-02-27T12:22:22.554Z,8.20
2023-02-27T12:25:15.629Z,5.90
2023-02-27T12:27:56.725Z,12.30
2023-02-27T12:30:29.504Z,11.00
2023-02-27T12:33:21.943Z,20.00
2023-02-27T12:35:58.214Z,6.70
2023-02-27T12:38:25.991Z,9.70
2023-02-27T12:41:12.564Z,20.40
2023-02-27T12:43:45.796Z,13.60
2023-02-27T12:46:36.986Z,241.50
2023-02-27T12:49:30.829Z,13.60
2023-02-27T12:52:15.362Z,12.90
2023-02-27T12:55:02.450Z,27.50
2023-02-27T12:57:56.301Z,8.30
2023-02-27T13:00:35.020Z,6.30
2023-02-27T13:03:18.782Z,5.50
2023-02-27T13:05:52.045Z,8.00
2023-02-27T13:08:46.984Z,7.00
2023-02-27T13:11:43.147Z,5.50
2023-02-27T13:14:35.152Z,5.20
2023-02-27T13:17:34.716Z,11.20
2023-02-27T13:20:25.043Z,19.70
2023-02-27T13:23:15.470Z,6.80
2023-02-27T13:25:47.085Z,13.50
2023-02-27T13:28:24.297Z,8.90
2023-02-27T13:31:13.879Z,7.50
2023-02-27T13:33:49.178Z,11.10
2023-02-27T13:36:42.914Z,5.10
2023-02-27T13:39:43.758Z,17.30
2023-02-27T13:42:27.478Z,15.60
2023-02-27T13:44:56.695Z,12.40
2023-02-27T13:47:30.535Z,8.10
2023-02-27T13:50:01.810Z,8.80
2023-02-27T13:52:35.514Z,4.90
2023-02-27T13:55:12.037Z,7.30
2023-02-27T13:57:40.109Z,22.90
2023-02-27T14:00:21.674Z,11.80
2023-02-27T14:03:00.014Z,4.60
2023-02-27T14:05:36.080Z,7.90
2023-02-27T14:08:10.260Z,6.30
2023-02-27T14:10:40.680Z,3.80
2023-02-27T14:13:50.332Z,5.50
2023-02-27T14:16:40.012Z,4.70
2023-02-27T14:19:22.849Z,20.80
2023-02-27T14:22:12.803Z,14.00
2023-02-27T14:25:01.650Z,10.40
2023-02-27T14:27:48.061Z,6.10
2023-02-27T14:30:28.100Z,17.00
2023-02-27T14:33:08.018Z,6.80
2023-02-27T14:35:36.134Z,6.00
2023-02-27T14:38:10.155Z,6.70
2023-02-27T14:40:53.753Z,7.50
2023-02-27T14:43:57.358Z,7.90
2023-02-27T14:46:36.854Z,5.70
2023-02-27T14:49:16.836Z,9.70
2023-02-27T14:51:45.113Z,13.40
2023-02-27T14:54:17.031Z,9.20
2023-02-27T14:57:05.123Z,11.30
2023-02-27T14:59:49.284Z,11.30
2023-02-27T15:02:20.199Z,13.00
2023-02-27T15:04:53.747Z,9.80
2023-02-27T15:10:06.103Z,8.10
2023-02-27T15:12:39.024Z,11.30
2023-02-27T15:15:09.800Z,6.20
2023-02-27T15:17:41.725Z,10.10
2023-02-27T15:20:29.777Z,7.50
2023-02-27T15:23:01.757Z,16.10
2023-02-27T15:25:39.706Z,34.10
2023-02-27T15:28:31.998Z,36.20
2023-02-27T15:30:59.770Z,50.80
2023-02-27T15:33:29.585Z,35.60
2023-02-27T15:35:58.453Z,13.90
2023-02-27T15:38:30.188Z,16.70
2023-02-27T15:40:59.774Z,24.00
2023-02-27T15:43:29.220Z,13.60
2023-02-27T15:45:58.208Z,20.70
2023-02-27T15:48:26.456Z,13.30
2023-02-27T15:50:58.066Z,19.10
2023-02-27T15:53:29.574Z,24.90
2023-02-27T15:56:00.842Z,11.10
2023-02-27T15:58:37.593Z,16.10
2023-02-27T16:01:11.521Z,9.20
2023-02-27T16:03:43.886Z,20.40
2023-02-27T16:06:18.044Z,10.20
2023-02-27T16:09:04.307Z,7.20
2023-02-27T16:11:37.461Z,20.20
2023-02-27T16:14:05.989Z,19.90
2023-02-27T16:16:36.155Z,17.00
2023-02-27T16:19:29.945Z,11.30
2023-02-27T16:22:18.616Z,19.50
2023-02-27T16:24:47.135Z,18.40
2023-02-27T16:27:31.877Z,27.40
2023-02-27T16:30:02.556Z,29.50
2023-02-27T16:32:39.005Z,47.30
2023-02-27T16:35:15.578Z,138.60
2023-02-27T16:37:45.169Z,250.90
2023-02-27T16:40:24.279Z,97.50
2023-02-27T16:42:52.833Z,70.60
2023-02-27T16:45:29.013Z,58.70
2023-02-27T16:47:59.179Z,44.20
2023-02-27T16:50:40.610Z,42.60
2023-02-27T16:53:08.920Z,41.10
2023-02-27T16:55:40.953Z,23.10
2023-02-27T16:58:15.310Z,23.10
2023-02-27T17:00:43.200Z,19.90
2023-02-27T17:03:10.888Z,21.50
2023-02-27T17:05:38.620Z,20.90
2023-02-27T17:08:06.264Z,28.60
2023-02-27T17:10:34.206Z,31.40
2023-02-27T17:13:01.814Z,23.30
2023-02-27T17:15:29.450Z,21.70
2023-02-27T17:17:57.080Z,20.40
2023-02-27T17:20:27.820Z,16.10
2023-02-27T17:22:55.852Z,18.30
2023-02-27T17:25:23.769Z,61.30
2023-02-27T17:27:51.721Z,29.30
2023-02-27T17:30:20.610Z,21.70
2023-02-27T17:32:48.276Z,21.20
2023-02-27T17:35:15.989Z,17.90
2023-02-27T17:37:43.613Z,76.20
2023-02-27T17:40:12.319Z,65.70
2023-02-27T17:42:40.496Z,16.50
2023-02-27T17:45:09.624Z,22.60
2023-02-27T17:47:37.478Z,35.60
2023-02-27T17:50:05.603Z,17.10
2023-02-27T17:52:37.304Z,27.90
2023-02-27T17:55:06.419Z,19.80
2023-02-27T17:57:39.362Z,32.20
2023-02-27T18:00:09.142Z,21.50
2023-02-27T18:02:37.132Z,16.20
2023-02-27T18:05:06.406Z,26.50
2023-02-27T18:07:34.595Z,18.80
2023-02-27T18:10:05.330Z,18.20
2023-02-27T18:12:33.066Z,32.70
2023-02-27T18:15:01.531Z,26.00
2023-02-27T18:17:29.172Z,26.30
2023-02-27T18:19:58.031Z,30.70
2023-02-27T18:22:26.585Z,47.40
2023-02-27T18:24:55.174Z,52.60
2023-02-27T18:27:22.797Z,39.10
2023-02-27T18:29:50.675Z,53.80
2023-02-27T18:32:18.536Z,44.40
2023-02-27T18:34:46.376Z,38.80
2023-02-27T18:37:14.198Z,38.00
2023-02-27T18:39:42.670Z,37.30
2023-02-27T18:42:10.401Z,34.60
2023-02-27T18:44:40.664Z,35.30
2023-02-27T18:47:09.553Z,38.80
2023-02-27T18:49:37.273Z,44.50
2023-02-27T18:52:04.985Z,33.70
2023-02-27T18:54:32.613Z,31.30
2023-02-27T18:57:00.707Z,52.70
2023-02-27T18:59:28.367Z,32.40
2023-02-27T19:01:57.148Z,34.50
2023-02-27T19:04:25.557Z,46.80
2023-02-27T19:06:53.268Z,32.10
2023-02-27T19:09:22.282Z,38.30
2023-02-27T19:11:50.082Z,46.90
2023-02-27T19:14:17.711Z,38.70
2023-02-27T19:16:46.331Z,40.90
2023-02-27T19:19:15.316Z,52.70
2023-02-27T19:21:43.586Z,63.60
2023-02-27T19:24:13.149Z,65.30
2023-02-27T19:26:41.198Z,85.10
2023-02-27T19:29:09.226Z,71.60
2023-02-27T19:31:36.950Z,89.00
2023-02-27T19:34:04.640Z,88.90
2023-02-27T19:36:34.446Z,86.50
2023-02-27T19:39:02.741Z,80.00
2023-02-27T19:41:33.077Z,75.70
2023-02-27T19:44:01.466Z,100.60
2023-02-27T19:46:33.658Z,64.30
2023-02-27T19:49:04.777Z,53.90
2023-02-27T19:51:33.036Z,55.00
2023-02-27T19:54:00.753Z,61.70
2023-02-27T19:56:30.153Z,59.20
2023-02-27T19:59:00.404Z,66.80
2023-02-27T20:01:31.353Z,80.50
2023-02-27T20:04:00.402Z,93.10
2023-02-27T20:06:31.323Z,71.10
2023-02-27T20:09:00.074Z,71.90
2023-02-27T20:11:31.860Z,69.20
2023-02-27T20:13:59.910Z,82.60
2023-02-27T20:16:30.484Z,237.10
2023-02-27T20:18:58.542Z,298.70
2023-02-27T20:21:28.778Z,408.00
2023-02-27T20:23:57.945Z,288.90
2023-02-27T20:26:31.510Z,122.30
2023-02-27T20:29:08.317Z,124.60
2023-02-27T20:31:38.705Z,117.10
2023-02-27T20:34:07.613Z,114.50
2023-02-27T20:36:36.032Z,109.40
2023-02-27T20:39:06.204Z,62.40
2023-02-27T20:41:34.612Z,63.90
2023-02-27T20:44:08.105Z,52.40
2023-02-27T20:46:36.457Z,55.50
2023-02-27T20:49:06.285Z,42.60
2023-02-27T20:51:37.899Z,39.60
2023-02-27T20:54:13.409Z,41.70
2023-02-27T20:56:42.146Z,42.30
2023-02-27T20:59:13.793Z,48.20
2023-02-27T21:01:51.127Z,56.20
2023-02-27T21:04:43.168Z,61.60
2023-02-27T21:07:17.631Z,68.10
2023-02-27T21:09:45.547Z,62.40
2023-02-27T21:12:13.468Z,49.80
2023-02-27T21:14:44.322Z,54.00
2023-02-27T21:17:13.801Z,96.20
2023-02-27T21:19:41.623Z,111.00
2023-02-27T21:22:11.181Z,95.10
2023-02-27T21:24:39.120Z,64.20
2023-02-27T21:27:06.959Z,81.50
2023-02-27T21:29:35.118Z,135.90
2023-02-27T21:32:03.238Z,127.50
2023-02-27T21:34:31.003Z,181.70
2023-02-27T21:37:02.523Z,87.20
2023-02-27T21:39:30.330Z,67.20
2023-02-27T21:42:02.122Z,79.10
2023-02-27T21:44:31.740Z,70.70
2023-02-27T21:46:59.495Z,63.80
2023-02-27T21:49:28.817Z,62.20
2023-02-27T21:51:57.028Z,84.30
2023-02-27T21:54:24.941Z,66.20
2023-02-27T21:56:52.756Z,76.40
2023-02-27T21:59:21.563Z,74.20
2023-02-27T22:01:49.517Z,55.10
2023-02-27T22:04:19.985Z,70.30
2023-02-27T22:06:49.679Z,76.00
2023-02-27T22:09:18.605Z,58.90
2023-02-27T22:11:47.465Z,65.50
2023-02-27T22:14:16.085Z,56.50
2023-02-27T22:16:44.042Z,53.80
2023-02-27T22:19:14.407Z,74.00
2023-02-27T22:21:42.138Z,66.60
2023-02-27T22:24:09.933Z,69.00
2023-02-27T22:26:38.142Z,67.10
2023-02-27T22:29:06.462Z,63.50
2023-02-27T22:31:37.524Z,58.10
2023-02-27T22:34:08.889Z,58.60
2023-02-27T22:36:36.945Z,75.90
2023-02-27T22:39:06.321Z,84.60
2023-02-27T22:41:37.158Z,73.60
2023-02-27T22:44:05.526Z,67.50
2023-02-27T22:46:38.915Z,70.00
2023-02-27T22:51:46.522Z,76.20
2023-02-27T22:54:15.523Z,75.90
2023-02-27T22:56:43.396Z,75.70
2023-02-27T22:59:11.192Z,72.30
2023-02-27T23:01:38.993Z,67.10
2023-02-27T23:04:08.916Z,64.90
2023-02-27T23:06:38.954Z,72.00
2023-02-27T23:09:10.420Z,64.80
2023-02-27T23:11:38.541Z,73.70
2023-02-27T23:14:06.893Z,54.60
2023-02-27T23:16:35.140Z,40.70
2023-02-27T23:19:04.090Z,31.40
2023-02-27T23:21:36.489Z,31.90
2023-02-27T23:24:06.430Z,33.40
2023-02-27T23:26:39.678Z,35.60
2023-02-27T23:29:08.008Z,28.90
2023-02-27T23:31:36.950Z,28.80
2023-02-27T23:34:05.963Z,32.60
2023-02-27T23:36:35.591Z,48.60
2023-02-27T23:39:05.060Z,51.00
2023-02-27T23:41:33.752Z,60.00
2023-02-27T23:44:02.054Z,43.80
2023-02-27T23:46:30.861Z,59.50
2023-02-27T23:48:59.991Z,53.60
2023-02-27T23:51:30.619Z,48.60
2023-02-27T23:53:59.762Z,53.20
2023-02-27T23:56:29.768Z,66.10
2023-02-27T23:59:04.277Z,53.90
